createdAt,value
2019-05-26T00:00:49.303Z,95716.95
2019-05-26T00:03:15.411Z,95716.73
2019-05-26T00:05:41.558Z,95721.34
2019-05-26T00:08:07.601Z,95717.52
2019-05-26T00:10:33.727Z,95729.73
2019-05-26T00:12:59.626Z,95727.47
2019-05-26T00:15:25.765Z,95727.59
2019-05-26T00:17:51.803Z,95718.69
2019-05-26T00:20:17.904Z,95717.48
2019-05-26T00:22:44.046Z,95713.73
2019-05-26T00:25:10.879Z,95716.21
2019-05-26T00:27:36.886Z,95715.45
2019-05-26T00:30:08.011Z,95714.24
2019-05-26T00:32:34.011Z,95719.38
2019-05-26T00:34:59.942Z,95722.17
2019-05-26T00:37:26.058Z,95718.20
2019-05-26T00:39:51.957Z,95714.95
2019-05-26T00:42:18.092Z,95713.45
2019-05-26T00:44:44.100Z,95714.30
2019-05-26T00:47:10.231Z,95711.69
2019-05-26T00:49:36.378Z,95709.94
2019-05-26T00:52:02.503Z,95717.70
2019-05-26T00:54:28.648Z,95717.17
2019-05-26T00:56:54.686Z,95716.00
2019-05-26T00:59:20.789Z,95710.37
2019-05-26T01:01:46.997Z,95715.39
2019-05-26T01:04:13.110Z,95709.20
2019-05-26T01:06:39.212Z,95707.98
2019-05-26T01:09:06.926Z,95705.67
2019-05-26T01:11:33.037Z,95704.89
2019-05-26T01:13:59.033Z,95701.34
2019-05-26T01:16:24.983Z,95697.48
2019-05-26T01:18:51.084Z,95699.95
2019-05-26T01:21:17.240Z,95705.69
2019-05-26T01:23:43.246Z,95706.19
2019-05-26T01:26:09.366Z,95706.61
2019-05-26T01:28:35.269Z,95705.50
2019-05-26T01:31:01.285Z,95709.47
2019-05-26T01:33:27.393Z,95705.72
2019-05-26T01:35:53.499Z,95704.50
2019-05-26T01:38:24.142Z,95704.21
2019-05-26T01:40:48.412Z,95696.48
2019-05-26T01:43:14.430Z,95695.16
2019-05-26T01:45:40.530Z,95688.77
2019-05-26T01:48:06.735Z,95697.31
2019-05-26T01:50:32.982Z,95689.30
2019-05-26T01:52:58.890Z,95689.08
2019-05-26T01:55:24.933Z,95684.08
2019-05-26T01:57:50.912Z,95690.80
2019-05-26T02:00:17.066Z,95683.58
2019-05-26T02:02:43.114Z,95686.94
2019-05-26T02:05:09.208Z,95686.65
2019-05-26T02:07:35.246Z,95689.30
2019-05-26T02:10:01.759Z,95701.48
2019-05-26T02:12:27.693Z,95697.92
2019-05-26T02:14:53.730Z,95701.85
2019-05-26T02:17:19.745Z,95706.75
2019-05-26T02:19:45.674Z,95698.28
2019-05-26T02:22:11.787Z,95694.70
2019-05-26T02:24:37.898Z,95703.64
2019-05-26T02:27:03.911Z,95699.23
2019-05-26T02:29:29.824Z,95701.20
2019-05-26T02:31:55.843Z,95701.20
2019-05-26T02:34:22.011Z,95702.10
2019-05-26T02:36:47.998Z,95701.45
2019-05-26T02:39:14.130Z,95700.67
2019-05-26T02:41:40.266Z,95704.64
2019-05-26T02:44:06.494Z,95705.36
2019-05-26T02:46:32.578Z,95700.34
2019-05-26T02:48:58.688Z,95698.62
2019-05-26T02:51:24.857Z,95690.97
2019-05-26T02:53:50.991Z,95692.80
2019-05-26T02:56:17.087Z,95692.91
2019-05-26T02:58:43.127Z,95692.37
2019-05-26T03:01:09.449Z,95690.55
2019-05-26T03:03:35.656Z,95692.97
2019-05-26T03:06:02.958Z,95695.41
2019-05-26T03:08:29.478Z,95693.08
2019-05-26T03:10:57.868Z,95700.52
2019-05-26T03:13:26.270Z,95703.23
2019-05-26T03:15:54.792Z,95710.64
2019-05-26T03:18:20.794Z,95712.56
2019-05-26T03:20:46.900Z,95713.75
2019-05-26T03:23:15.010Z,95717.89
2019-05-26T03:25:41.112Z,95707.90
2019-05-26T03:28:07.839Z,95713.19
2019-05-26T03:30:34.617Z,95712.39
2019-05-26T03:33:00.639Z,95717.98
2019-05-26T03:35:26.664Z,95720.52
2019-05-26T03:37:52.570Z,95724.87
2019-05-26T03:40:18.685Z,95726.59
2019-05-26T03:42:44.731Z,95724.10
2019-05-26T03:45:14.393Z,95721.23
2019-05-26T03:47:40.448Z,95728.08
2019-05-26T03:50:06.856Z,95731.73
2019-05-26T03:52:32.897Z,95728.20
2019-05-26T03:54:58.891Z,95721.79
2019-05-26T03:57:24.932Z,95723.94
2019-05-26T03:59:50.940Z,95723.78
2019-05-26T04:02:16.971Z,95719.38
2019-05-26T04:04:42.877Z,95723.02
2019-05-26T04:07:09.020Z,95718.03
2019-05-26T04:09:34.924Z,95720.14
2019-05-26T04:12:00.839Z,95716.70
2019-05-26T04:14:26.848Z,95718.09
2019-05-26T04:16:56.239Z,95721.13
2019-05-26T04:19:20.913Z,95720.47
2019-05-26T04:21:47.466Z,95718.42
2019-05-26T04:24:13.600Z,95717.70
2019-05-26T04:26:40.302Z,95716.16
2019-05-26T04:29:06.304Z,95722.66
2019-05-26T04:31:32.422Z,95713.44
2019-05-26T04:33:58.349Z,95710.31
2019-05-26T04:36:24.385Z,95714.61
2019-05-26T04:38:50.393Z,95716.61
2019-05-26T04:41:16.435Z,95723.33
2019-05-26T04:43:42.352Z,95718.37
2019-05-26T04:46:08.363Z,95715.72
2019-05-26T04:48:34.306Z,95719.38
2019-05-26T04:51:00.335Z,95719.42
2019-05-26T04:53:26.339Z,95714.45
2019-05-26T04:55:52.495Z,95711.52
2019-05-26T04:58:18.603Z,95715.17
2019-05-26T05:00:44.645Z,95720.26
2019-05-26T05:03:10.757Z,95717.87
2019-05-26T05:05:36.658Z,95711.88
2019-05-26T05:08:02.892Z,95709.06
2019-05-26T05:10:41.979Z,95714.69
2019-05-26T05:12:56.919Z,95711.30
2019-05-26T05:15:23.030Z,95702.02
2019-05-26T05:17:49.040Z,95705.66
2019-05-26T05:20:15.240Z,95701.09
2019-05-26T05:22:41.160Z,95698.66
2019-05-26T05:25:13.890Z,95696.70
2019-05-26T05:27:35.388Z,95697.58
2019-05-26T05:30:03.464Z,95701.61
2019-05-26T05:32:32.810Z,95704.27
2019-05-26T05:34:57.316Z,95700.53
2019-05-26T05:37:25.312Z,95705.76
2019-05-26T05:39:51.340Z,95707.33
2019-05-26T05:42:17.447Z,95711.51
2019-05-26T05:44:43.464Z,95710.69
2019-05-26T05:47:09.571Z,95707.67
2019-05-26T05:49:35.694Z,95715.08
2019-05-26T05:52:01.696Z,95704.28
2019-05-26T05:54:27.717Z,95706.57
2019-05-26T05:56:55.747Z,95701.91
2019-05-26T05:59:21.650Z,95706.93
2019-05-26T06:01:47.540Z,95702.27
2019-05-26T06:04:13.558Z,95706.38
2019-05-26T06:06:39.571Z,95701.84
2019-05-26T06:09:05.883Z,95703.75
2019-05-26T06:11:31.997Z,95699.20
2019-05-26T06:13:57.944Z,95696.98
2019-05-26T06:16:24.115Z,95699.30
2019-05-26T06:18:50.219Z,95699.78
2019-05-26T06:21:16.324Z,95699.80
2019-05-26T06:23:42.327Z,95694.67
2019-05-26T06:26:08.483Z,95692.77
2019-05-26T06:28:34.606Z,95695.42
2019-05-26T06:31:00.753Z,95691.48
2019-05-26T06:33:26.795Z,95693.08
2019-05-26T06:35:52.915Z,95689.38
2019-05-26T06:38:18.921Z,95690.58
2019-05-26T06:40:44.939Z,95690.31
2019-05-26T06:43:11.078Z,95686.83
2019-05-26T06:45:37.092Z,95690.55
2019-05-26T06:48:03.237Z,95687.03
2019-05-26T06:50:29.364Z,95685.47
2019-05-26T06:52:55.379Z,95689.66
2019-05-26T06:55:21.370Z,95689.80
2019-05-26T06:57:47.307Z,95689.38
2019-05-26T07:00:13.813Z,95684.77
2019-05-26T07:02:39.918Z,95685.28
2019-05-26T07:05:06.633Z,95680.11
2019-05-26T07:07:32.790Z,95677.94
2019-05-26T07:09:58.802Z,95674.91
2019-05-26T07:12:24.754Z,95681.94
2019-05-26T07:14:50.762Z,95673.84
2019-05-26T07:17:20.396Z,95667.54
2019-05-26T07:19:44.721Z,95666.42
2019-05-26T07:22:10.725Z,95663.58
2019-05-26T07:24:36.840Z,95665.14
2019-05-26T07:27:02.949Z,95668.22
2019-05-26T07:29:28.989Z,95664.63
2019-05-26T07:31:55.020Z,95664.95
2019-05-26T07:34:20.923Z,95668.55
2019-05-26T07:36:46.931Z,95668.07
2019-05-26T07:39:13.037Z,95669.62
2019-05-26T07:41:39.161Z,95662.50
2019-05-26T07:44:05.268Z,95667.12
2019-05-26T07:46:31.278Z,95670.69
2019-05-26T07:48:57.196Z,95662.47
2019-05-26T07:51:23.139Z,95663.13
2019-05-26T07:53:49.148Z,95661.84
2019-05-26T07:56:15.163Z,95664.81
2019-05-26T07:58:41.074Z,95666.19
2019-05-26T08:01:07.200Z,95670.79
2019-05-26T08:03:33.327Z,95665.28
2019-05-26T08:05:59.326Z,95668.53
2019-05-26T08:08:25.355Z,95673.42
2019-05-26T08:10:51.460Z,95668.59
2019-05-26T08:13:17.581Z,95666.17
2019-05-26T08:15:43.584Z,95668.63
2019-05-26T08:18:09.703Z,95665.45
2019-05-26T08:20:35.817Z,95664.70
2019-05-26T08:23:01.953Z,95660.20
2019-05-26T08:25:28.080Z,95662.36
2019-05-26T08:27:54.092Z,95663.45
2019-05-26T08:30:20.231Z,95658.64
2019-05-26T08:32:46.334Z,95657.05
2019-05-26T08:35:12.465Z,95660.27
2019-05-26T08:37:38.581Z,95651.65
2019-05-26T08:40:17.119Z,95655.95
2019-05-26T08:42:44.753Z,95650.82
2019-05-26T08:45:10.979Z,95654.59
2019-05-26T08:47:37.161Z,95662.38
2019-05-26T08:50:05.379Z,95662.65
2019-05-26T08:52:31.406Z,95665.59
2019-05-26T08:54:57.417Z,95657.27
2019-05-26T08:57:23.567Z,95655.88
2019-05-26T08:59:49.489Z,95648.08
2019-05-26T09:02:15.419Z,95655.06
2019-05-26T09:04:41.399Z,95650.47
2019-05-26T09:07:07.516Z,95650.98
2019-05-26T09:09:33.557Z,95645.33
2019-05-26T09:11:59.742Z,95641.50
2019-05-26T09:14:25.759Z,95640.64
2019-05-26T09:16:51.881Z,95640.05
2019-05-26T09:19:18.023Z,95637.90
2019-05-26T09:21:44.214Z,95641.13
2019-05-26T09:24:10.372Z,95639.47
2019-05-26T09:26:36.533Z,95646.91
2019-05-26T09:29:02.834Z,95643.09
2019-05-26T09:31:28.981Z,95637.98
2019-05-26T09:33:54.991Z,95633.70
2019-05-26T09:36:21.001Z,95628.06
2019-05-26T09:38:47.078Z,95629.70
2019-05-26T09:41:13.186Z,95631.61
2019-05-26T09:43:39.345Z,95619.73
2019-05-26T09:46:05.358Z,95624.52
2019-05-26T09:48:31.499Z,95630.65
2019-05-26T09:50:57.669Z,95627.67
2019-05-26T09:53:23.784Z,95626.28
2019-05-26T09:55:49.904Z,95626.73
2019-05-26T09:58:16.016Z,95623.70
2019-05-26T10:00:43.734Z,95623.03
2019-05-26T10:03:09.653Z,95625.72
2019-05-26T10:05:35.651Z,95624.89
2019-05-26T10:08:01.730Z,95624.04
2019-05-26T10:10:27.731Z,95618.92
2019-05-26T10:12:53.839Z,95619.36
2019-05-26T10:15:20.052Z,95616.84
2019-05-26T10:17:46.059Z,95620.44
2019-05-26T10:20:12.362Z,95619.43
2019-05-26T10:22:38.487Z,95619.53
2019-05-26T10:25:05.192Z,95623.20
2019-05-26T10:27:31.271Z,95621.13
2019-05-26T10:29:57.356Z,95619.40
2019-05-26T10:32:23.524Z,95611.16
2019-05-26T10:34:49.552Z,95605.09
2019-05-26T10:37:15.588Z,95606.66
2019-05-26T10:39:44.865Z,95605.31
2019-05-26T10:42:09.699Z,95608.83
2019-05-26T10:44:35.603Z,95604.09
2019-05-26T10:47:01.710Z,95606.95
2019-05-26T10:49:27.728Z,95614.00
2019-05-26T10:51:53.805Z,95614.30
2019-05-26T10:54:19.806Z,95615.50
2019-05-26T10:56:45.949Z,95613.92
2019-05-26T10:59:11.949Z,95612.98
2019-05-26T11:01:38.011Z,95618.43
2019-05-26T11:04:04.238Z,95613.08
2019-05-26T11:06:30.373Z,95616.85
2019-05-26T11:08:56.379Z,95617.74
2019-05-26T11:11:22.324Z,95622.42
2019-05-26T11:14:01.869Z,95618.39
2019-05-26T11:16:16.891Z,95628.41
2019-05-26T11:18:42.888Z,95624.38
2019-05-26T11:21:12.240Z,95628.22
2019-05-26T11:23:37.072Z,95626.24
2019-05-26T11:26:03.868Z,95622.95
2019-05-26T11:28:29.992Z,95620.56
2019-05-26T11:30:55.953Z,95618.16
2019-05-26T11:33:21.990Z,95622.43
2019-05-26T11:35:47.881Z,95617.80
2019-05-26T11:38:13.927Z,95618.08
2019-05-26T11:40:40.043Z,95613.45
2019-05-26T11:43:16.388Z,95612.87
2019-05-26T11:45:34.213Z,95609.62
2019-05-26T11:48:00.379Z,95609.28
2019-05-26T11:50:26.387Z,95606.28
2019-05-26T11:52:52.500Z,95603.59
2019-05-26T11:55:18.606Z,95603.07
2019-05-26T11:57:44.650Z,95603.42
2019-05-26T12:00:14.186Z,95611.05
2019-05-26T12:02:40.427Z,95601.89
2019-05-26T12:05:06.931Z,95601.62
2019-05-26T12:07:32.944Z,95594.61
2019-05-26T12:09:58.956Z,95591.93
2019-05-26T12:12:24.952Z,95590.06
2019-05-26T12:14:50.859Z,95584.60
2019-05-26T12:17:16.867Z,95583.06
2019-05-26T12:19:42.888Z,95586.98
2019-05-26T12:22:09.192Z,95582.19
2019-05-26T12:24:35.202Z,95574.83
2019-05-26T12:27:01.203Z,95577.31
2019-05-26T12:29:27.213Z,95566.56
2019-05-26T12:31:53.210Z,95575.59
2019-05-26T12:34:19.977Z,95566.27
2019-05-26T12:36:46.080Z,95560.65
2019-05-26T12:39:12.099Z,95555.77
2019-05-26T12:41:38.008Z,95561.78
2019-05-26T12:44:04.222Z,95561.86
2019-05-26T12:46:30.251Z,95551.84
2019-05-26T12:48:56.228Z,95550.40
2019-05-26T12:51:22.227Z,95561.63
2019-05-26T12:53:48.243Z,95561.33
2019-05-26T12:56:15.231Z,95561.48
2019-05-26T12:58:41.404Z,95560.86
2019-05-26T13:01:07.495Z,95565.93
2019-05-26T13:03:33.535Z,95553.77
2019-05-26T13:05:59.667Z,95556.17
2019-05-26T13:08:25.717Z,95557.42
2019-05-26T13:10:51.727Z,95552.80
2019-05-26T13:13:17.860Z,95552.23
2019-05-26T13:15:43.982Z,95556.77
2019-05-26T13:18:10.096Z,95561.23
2019-05-26T13:20:36.235Z,95567.36
2019-05-26T13:23:02.378Z,95562.34
2019-05-26T13:25:28.515Z,95566.13
2019-05-26T13:27:54.534Z,95562.33
2019-05-26T13:30:22.855Z,95567.84
2019-05-26T13:32:49.074Z,95564.56
2019-05-26T13:35:15.415Z,95563.65
2019-05-26T13:37:41.483Z,95554.11
2019-05-26T13:40:08.721Z,95564.94
2019-05-26T13:42:35.076Z,95558.16
2019-05-26T13:45:01.175Z,95558.16
2019-05-26T13:47:27.225Z,95534.38
2019-05-26T13:49:53.329Z,95534.38
2019-05-26T13:52:19.481Z,95554.65
2019-05-26T13:54:45.510Z,95542.35
2019-05-26T13:57:11.669Z,95541.70
2019-05-26T13:59:37.704Z,95541.70
2019-05-26T14:02:03.924Z,95550.83
2019-05-26T14:04:30.042Z,95550.83
2019-05-26T14:06:56.154Z,95552.14
2019-05-26T14:09:22.278Z,95542.42
2019-05-26T14:11:48.290Z,95542.59
2019-05-26T14:14:14.822Z,95550.55
2019-05-26T14:16:43.142Z,95552.12
2019-05-26T14:19:09.489Z,95546.41
2019-05-26T14:21:35.486Z,95544.38
2019-05-26T14:24:01.441Z,95542.20
2019-05-26T14:26:27.369Z,95543.36
2019-05-26T14:28:53.379Z,95550.80
2019-05-26T14:31:19.546Z,95561.90
2019-05-26T14:33:45.450Z,95561.90
2019-05-26T14:36:11.486Z,95557.97
2019-05-26T14:38:43.161Z,95563.17
2019-05-26T14:41:05.405Z,95559.29
2019-05-26T14:43:31.603Z,95550.64
2019-05-26T14:45:57.708Z,95558.03
2019-05-26T14:48:23.821Z,95553.25
2019-05-26T14:50:49.922Z,95553.12
2019-05-26T14:53:16.068Z,95552.59
2019-05-26T14:55:42.075Z,95550.34
2019-05-26T14:58:15.876Z,95540.84
2019-05-26T15:00:36.196Z,95535.85
2019-05-26T15:03:02.804Z,95540.83
2019-05-26T15:05:28.910Z,95537.93
2019-05-26T15:07:55.029Z,95538.69
2019-05-26T15:10:22.694Z,95542.44
2019-05-26T15:12:49.170Z,95543.73
2019-05-26T15:15:16.570Z,95547.34
2019-05-26T15:17:42.784Z,95551.53
2019-05-26T15:20:09.391Z,95558.42
2019-05-26T15:22:35.427Z,95557.27
2019-05-26T15:25:03.467Z,95554.73
2019-05-26T15:27:29.482Z,95554.84
2019-05-26T15:29:55.382Z,95548.52
2019-05-26T15:32:21.498Z,95554.51
2019-05-26T15:34:47.400Z,95551.30
2019-05-26T15:37:13.539Z,95547.76
2019-05-26T15:39:39.559Z,95550.38
2019-05-26T15:42:08.330Z,95558.14
2019-05-26T15:44:33.589Z,95553.79
2019-05-26T15:46:59.925Z,95557.81
2019-05-26T15:49:26.040Z,95558.14
2019-05-26T15:51:52.155Z,95567.36
2019-05-26T15:54:18.174Z,95566.45
2019-05-26T15:56:44.194Z,95566.38
2019-05-26T15:59:10.304Z,95566.48
2019-05-26T16:01:36.318Z,95563.79
2019-05-26T16:04:02.442Z,95570.13
2019-05-26T16:06:28.587Z,95571.89
2019-05-26T16:08:54.719Z,95576.57
2019-05-26T16:11:20.827Z,95579.56
2019-05-26T16:13:46.877Z,95578.20
2019-05-26T16:16:12.983Z,95578.16
2019-05-26T16:18:39.107Z,95572.94
2019-05-26T16:21:05.214Z,95568.95
2019-05-26T16:23:31.326Z,95567.13
2019-05-26T16:25:57.335Z,95566.26
2019-05-26T16:28:23.373Z,95567.84
2019-05-26T16:30:49.267Z,95567.55
2019-05-26T16:33:15.193Z,95567.90
2019-05-26T16:35:41.298Z,95567.90
2019-05-26T16:38:07.310Z,95570.59
2019-05-26T16:40:33.358Z,95573.81
2019-05-26T16:42:59.359Z,95576.86
2019-05-26T16:45:25.376Z,95576.12
2019-05-26T16:47:51.287Z,95572.66
2019-05-26T16:50:17.398Z,95578.05
2019-05-26T16:52:43.515Z,95581.27
2019-05-26T16:55:10.122Z,95580.50
2019-05-26T16:57:36.237Z,95584.78
2019-05-26T17:00:03.345Z,95582.84
2019-05-26T17:02:29.360Z,95589.25
2019-05-26T17:04:55.491Z,95582.27
2019-05-26T17:07:21.401Z,95579.33
2019-05-26T17:09:47.542Z,95580.16
2019-05-26T17:12:13.588Z,95586.17
2019-05-26T17:14:39.596Z,95573.05
2019-05-26T17:17:14.875Z,95570.98
2019-05-26T17:19:33.648Z,95575.59
2019-05-26T17:21:59.676Z,95573.28
2019-05-26T17:24:25.717Z,95579.25
2019-05-26T17:26:51.827Z,95579.59
2019-05-26T17:29:17.866Z,95579.67
2019-05-26T17:31:43.875Z,95580.53
2019-05-26T17:34:10.022Z,95580.30
2019-05-26T17:36:36.341Z,95578.98
2019-05-26T17:39:05.593Z,95576.30
2019-05-26T17:41:31.533Z,95573.68
2019-05-26T17:43:57.464Z,95570.25
2019-05-26T17:46:23.469Z,95568.66
2019-05-26T17:48:49.578Z,95566.78
2019-05-26T17:51:15.693Z,95571.38
2019-05-26T17:53:41.728Z,95568.42
2019-05-26T17:56:07.893Z,95565.77
2019-05-26T17:58:33.898Z,95571.74
2019-05-26T18:01:00.054Z,95566.67
2019-05-26T18:03:26.069Z,95568.33
2019-05-26T18:05:52.212Z,95561.39
2019-05-26T18:08:18.323Z,95558.47
2019-05-26T18:10:44.471Z,95555.80
2019-05-26T18:13:10.592Z,95552.89
2019-05-26T18:15:36.747Z,95560.48
2019-05-26T18:18:02.951Z,95558.36
2019-05-26T18:20:29.162Z,95569.67
2019-05-26T18:22:55.205Z,95572.66
2019-05-26T18:25:21.302Z,95575.38
2019-05-26T18:27:47.309Z,95578.59
2019-05-26T18:30:13.817Z,95580.23
2019-05-26T18:32:39.827Z,95584.81
2019-05-26T18:35:06.963Z,95587.78
2019-05-26T18:37:33.076Z,95590.47
2019-05-26T18:39:59.193Z,95594.98
2019-05-26T18:42:25.293Z,95606.53
2019-05-26T18:44:51.324Z,95607.03
2019-05-26T18:47:17.430Z,95614.02
2019-05-26T18:49:43.576Z,95608.34
2019-05-26T18:52:09.791Z,95613.16
2019-05-26T18:54:35.879Z,95614.46
2019-05-26T18:57:02.007Z,95617.64
2019-05-26T18:59:28.035Z,95616.26
2019-05-26T19:01:54.178Z,95617.30
2019-05-26T19:04:20.183Z,95625.28
2019-05-26T19:06:46.089Z,95624.47
2019-05-26T19:09:12.196Z,95623.89
2019-05-26T19:11:38.301Z,95624.66
2019-05-26T19:14:05.110Z,95625.71
2019-05-26T19:16:31.216Z,95623.80
2019-05-26T19:18:57.411Z,95628.56
2019-05-26T19:21:23.514Z,95629.88
2019-05-26T19:23:49.555Z,95626.06
2019-05-26T19:26:15.704Z,95633.80
2019-05-26T19:28:41.749Z,95627.85
2019-05-26T19:31:07.856Z,95627.30
2019-05-26T19:33:33.894Z,95627.22
2019-05-26T19:35:59.794Z,95626.36
2019-05-26T19:38:25.944Z,95618.55
2019-05-26T19:40:51.974Z,95616.36
2019-05-26T19:43:18.110Z,95615.77
2019-05-26T19:45:44.230Z,95613.31
2019-05-26T19:48:10.235Z,95622.38
2019-05-26T19:50:36.283Z,95611.33
2019-05-26T19:53:02.608Z,95619.79
2019-05-26T19:55:28.788Z,95620.04
2019-05-26T19:57:54.798Z,95618.61
2019-05-26T20:00:21.282Z,95620.42
2019-05-26T20:02:47.291Z,95619.55
2019-05-26T20:05:14.183Z,95615.73
2019-05-26T20:07:40.295Z,95619.13
2019-05-26T20:10:07.335Z,95620.88
2019-05-26T20:12:33.437Z,95608.53
2019-05-26T20:14:59.545Z,95618.64
2019-05-26T20:17:25.558Z,95609.19
2019-05-26T20:19:51.599Z,95618.98
2019-05-26T20:22:17.697Z,95617.01
2019-05-26T20:24:43.645Z,95627.41
2019-05-26T20:27:09.760Z,95623.29
2019-05-26T20:29:35.795Z,95621.84
2019-05-26T20:32:01.938Z,95618.31
2019-05-26T20:34:28.049Z,95619.84
2019-05-26T20:36:54.164Z,95618.97
2019-05-26T20:39:20.170Z,95624.56
2019-05-26T20:41:46.077Z,95631.75
2019-05-26T20:44:12.190Z,95633.06
2019-05-26T20:46:38.204Z,95632.23
2019-05-26T20:49:04.312Z,95632.17
2019-05-26T20:51:30.418Z,95630.50
2019-05-26T20:53:56.483Z,95626.89
2019-05-26T20:56:22.487Z,95623.88
2019-05-26T20:58:48.496Z,95626.74
2019-05-26T21:01:14.611Z,95622.39
2019-05-26T21:03:40.736Z,95633.50
2019-05-26T21:06:06.673Z,95630.52
2019-05-26T21:08:32.621Z,95628.34
2019-05-26T21:10:58.519Z,95635.98
2019-05-26T21:13:24.465Z,95645.77
2019-05-26T21:15:50.588Z,95644.86
2019-05-26T21:18:16.639Z,95641.05
2019-05-26T21:20:43.153Z,95642.51
2019-05-26T21:23:09.059Z,95638.97
2019-05-26T21:25:35.230Z,95638.58
2019-05-26T21:28:01.085Z,95640.88
2019-05-26T21:30:27.190Z,95641.06
2019-05-26T21:32:53.300Z,95640.16
2019-05-26T21:35:19.409Z,95640.88
2019-05-26T21:37:45.413Z,95640.52
2019-05-26T21:40:11.759Z,95632.09
2019-05-26T21:42:37.762Z,95634.88
2019-05-26T21:45:05.369Z,95633.17
2019-05-26T21:47:31.515Z,95634.41
2019-05-26T21:49:57.518Z,95635.88
2019-05-26T21:52:23.635Z,95636.53
2019-05-26T21:54:49.584Z,95637.53
2019-05-26T21:57:15.603Z,95647.02
2019-05-26T21:59:41.539Z,95651.97
2019-05-26T22:02:07.709Z,95649.72
2019-05-26T22:04:33.815Z,95649.09
2019-05-26T22:06:59.965Z,95644.25
2019-05-26T22:09:26.095Z,95636.67
2019-05-26T22:11:52.115Z,95632.91
2019-05-26T22:14:18.224Z,95633.83
2019-05-26T22:16:44.229Z,95620.72
2019-05-26T22:19:10.382Z,95620.42
2019-05-26T22:21:36.291Z,95626.28
2019-05-26T22:24:02.532Z,95625.36
2019-05-26T22:26:28.594Z,95627.23
2019-05-26T22:28:54.702Z,95627.68
2019-05-26T22:31:21.455Z,95628.73
2019-05-26T22:33:47.366Z,95627.64
2019-05-26T22:36:13.394Z,95630.77
2019-05-26T22:38:39.411Z,95632.27
2019-05-26T22:41:05.551Z,95634.00
2019-05-26T22:43:31.695Z,95631.22
2019-05-26T22:45:57.965Z,95633.30
2019-05-26T22:48:24.005Z,95635.61
2019-05-26T22:50:50.049Z,95635.50
2019-05-26T22:53:16.162Z,95635.38
2019-05-26T22:55:42.176Z,95632.09
2019-05-26T22:58:08.090Z,95634.63
2019-05-26T23:00:34.209Z,95635.38
2019-05-26T23:03:00.351Z,95638.42
2019-05-26T23:05:26.468Z,95634.39
2019-05-26T23:07:52.576Z,95627.63
2019-05-26T23:10:18.677Z,95632.82
2019-05-26T23:12:44.795Z,95634.53
2019-05-26T23:15:12.535Z,95631.25
2019-05-26T23:17:39.308Z,95630.38
2019-05-26T23:20:07.581Z,95626.59
2019-05-26T23:22:33.586Z,95631.86
2019-05-26T23:24:59.703Z,95625.09
2019-05-26T23:27:25.824Z,95623.87
2019-05-26T23:29:51.721Z,95620.39
2019-05-26T23:32:17.828Z,95622.23
2019-05-26T23:34:43.861Z,95623.20
2019-05-26T23:37:09.847Z,95617.02
2019-05-26T23:39:35.961Z,95618.81
2019-05-26T23:42:02.097Z,95627.38
2019-05-26T23:44:28.101Z,95625.42
2019-05-26T23:46:54.138Z,95629.27
2019-05-26T23:49:20.054Z,95626.53
2019-05-26T23:51:46.107Z,95625.16
2019-05-26T23:54:12.229Z,95616.09
2019-05-26T23:56:38.323Z,95617.05
2019-05-26T23:59:04.434Z,95616.94
